createdAt,value
2018-08-09T00:01:41.307Z,25.32
2018-08-09T00:04:11.238Z,25.30
2018-08-09T00:06:41.953Z,25.35
2018-08-09T00:09:12.207Z,25.19
2018-08-09T00:11:42.476Z,25.21
2018-08-09T00:14:13.651Z,25.19
2018-08-09T00:16:43.565Z,25.12
2018-08-09T00:19:13.825Z,25.12
2018-08-09T00:21:44.828Z,25.10
2018-08-09T00:24:16.497Z,25.13
2018-08-09T00:26:46.244Z,25.09
2018-08-09T00:29:16.721Z,25.09
2018-08-09T00:31:47.066Z,25.07
2018-08-09T00:34:18.372Z,25.03
2018-08-09T00:36:49.822Z,24.96
2018-08-09T00:39:20.107Z,24.86
2018-08-09T00:41:50.238Z,24.83
2018-08-09T00:44:20.388Z,24.76
2018-08-09T00:46:51.713Z,24.74
2018-08-09T00:49:22.326Z,24.78
2018-08-09T00:51:52.598Z,24.73
2018-08-09T00:54:23.009Z,24.78
2018-08-09T00:56:53.164Z,24.78
2018-08-09T00:59:23.149Z,24.70
2018-08-09T01:01:53.549Z,24.61
2018-08-09T01:04:24.462Z,24.56
2018-08-09T01:06:54.377Z,24.62
2018-08-09T01:09:24.970Z,24.62
2018-08-09T01:11:56.529Z,24.58
2018-08-09T01:14:26.933Z,24.52
2018-08-09T01:16:56.737Z,24.59
2018-08-09T01:19:27.825Z,24.66
2018-08-09T01:21:58.499Z,24.72
2018-08-09T01:24:29.313Z,24.71
2018-08-09T01:27:00.909Z,24.70
2018-08-09T01:29:31.168Z,24.73
2018-08-09T01:32:01.865Z,24.72
2018-08-09T01:34:32.084Z,24.73
2018-08-09T01:37:02.128Z,24.67
2018-08-09T01:39:32.888Z,24.56
2018-08-09T01:42:14.673Z,24.55
2018-08-09T01:44:44.893Z,24.53
2018-08-09T01:47:16.023Z,24.49
2018-08-09T01:49:45.806Z,24.51
2018-08-09T01:52:16.063Z,24.48
2018-08-09T01:54:46.064Z,24.39
2018-08-09T01:57:16.740Z,24.33
2018-08-09T01:59:47.154Z,24.27
2018-08-09T02:02:17.203Z,24.24
2018-08-09T02:04:47.085Z,24.11
2018-08-09T02:07:17.659Z,24.05
2018-08-09T02:09:48.420Z,24.02
2018-08-09T02:12:18.188Z,23.99
2018-08-09T02:14:48.496Z,24.00
2018-08-09T02:17:18.787Z,23.97
2018-08-09T02:19:49.588Z,23.88
2018-08-09T02:22:20.179Z,23.79
2018-08-09T02:24:50.529Z,23.78
2018-08-09T02:27:20.660Z,23.83
2018-08-09T02:29:50.981Z,23.83
2018-08-09T02:32:21.476Z,23.86
2018-08-09T02:34:52.750Z,23.81
2018-08-09T02:37:22.443Z,23.73
2018-08-09T02:39:52.937Z,23.66
2018-08-09T02:42:23.829Z,23.68
2018-08-09T02:44:54.574Z,23.67
2018-08-09T02:47:24.791Z,23.68
2018-08-09T02:49:55.401Z,23.71
2018-08-09T02:52:25.931Z,23.70
2018-08-09T02:54:56.510Z,23.63
2018-08-09T02:57:27.381Z,23.69
2018-08-09T02:59:58.516Z,23.64
2018-08-09T03:02:29.640Z,23.54
2018-08-09T03:05:01.209Z,23.44
2018-08-09T03:07:32.903Z,23.40
2018-08-09T03:10:04.702Z,23.35
2018-08-09T03:12:34.784Z,23.26
2018-08-09T03:15:05.364Z,23.29
2018-08-09T03:17:35.908Z,23.39
2018-08-09T03:20:05.873Z,23.34
2018-08-09T03:22:35.973Z,23.31
2018-08-09T03:25:06.484Z,22.88
2018-08-09T03:27:37.199Z,23.30
2018-08-09T03:30:08.298Z,23.26
2018-08-09T03:32:38.701Z,23.24
2018-08-09T03:35:08.726Z,23.14
2018-08-09T03:37:38.778Z,23.13
2018-08-09T03:40:08.915Z,23.10
2018-08-09T03:42:39.891Z,23.08
2018-08-09T03:45:10.361Z,23.11
2018-08-09T03:47:40.594Z,23.11
2018-08-09T03:50:10.497Z,23.09
2018-08-09T03:52:40.318Z,23.04
2018-08-09T03:55:12.028Z,23.10
2018-08-09T03:57:41.938Z,23.15
2018-08-09T04:00:11.847Z,23.19
2018-08-09T04:02:41.513Z,23.12
2018-08-09T04:05:11.539Z,23.13
2018-08-09T04:07:42.089Z,23.08
2018-08-09T04:10:12.102Z,23.11
2018-08-09T04:12:42.396Z,23.13
2018-08-09T04:15:13.292Z,23.15
2018-08-09T04:17:43.183Z,23.17
2018-08-09T04:20:12.906Z,23.09
2018-08-09T04:22:43.285Z,23.21
2018-08-09T04:25:12.943Z,23.30
2018-08-09T04:27:42.658Z,23.34
2018-08-09T04:30:14.355Z,23.28
2018-08-09T04:32:44.234Z,23.24
2018-08-09T04:35:14.239Z,23.20
2018-08-09T04:37:44.616Z,23.13
2018-08-09T04:40:14.744Z,23.22
2018-08-09T04:43:47.899Z,23.25
2018-08-09T04:46:19.938Z,23.35
2018-08-09T04:48:50.553Z,23.38
2018-08-09T04:51:20.686Z,23.40
2018-08-09T04:53:50.550Z,23.37
2018-08-09T04:56:20.600Z,23.33
2018-08-09T04:58:51.390Z,23.42
2018-08-09T05:01:23.659Z,23.56
2018-08-09T05:03:53.775Z,23.51
2018-08-09T05:06:23.927Z,23.58
2018-08-09T05:08:54.322Z,23.64
2018-08-09T05:11:24.083Z,23.68
2018-08-09T05:13:54.217Z,23.73
2018-08-09T05:16:25.165Z,23.72
2018-08-09T05:18:55.460Z,23.79
2018-08-09T05:21:25.208Z,23.81
2018-08-09T05:23:55.220Z,23.89
2018-08-09T05:26:26.025Z,23.95
2018-08-09T05:28:56.346Z,24.00
2018-08-09T05:31:27.217Z,24.19
2018-08-09T05:33:57.371Z,24.19
2018-08-09T05:36:27.682Z,24.15
2018-08-09T05:38:58.275Z,24.20
2018-08-09T05:41:28.629Z,24.26
2018-08-09T05:43:58.511Z,24.32
2018-08-09T05:46:29.139Z,24.39
2018-08-09T05:48:59.386Z,24.48
2018-08-09T05:51:29.414Z,24.67
2018-08-09T05:54:00.284Z,24.79
2018-08-09T05:56:30.741Z,24.91
2018-08-09T05:59:00.781Z,25.04
2018-08-09T06:01:31.086Z,25.05
2018-08-09T06:04:01.984Z,25.11
2018-08-09T06:06:32.651Z,25.21
2018-08-09T06:09:03.601Z,25.31
2018-08-09T06:11:33.577Z,25.15
2018-08-09T06:14:04.371Z,25.28
2018-08-09T06:16:35.165Z,25.41
2018-08-09T06:19:06.226Z,25.49
2018-08-09T06:21:36.254Z,25.47
2018-08-09T06:24:06.600Z,25.54
2018-08-09T06:26:37.401Z,25.53
2018-08-09T06:29:07.748Z,25.55
2018-08-09T06:31:38.884Z,25.65
2018-08-09T06:34:09.045Z,25.83
2018-08-09T06:36:38.869Z,25.90
2018-08-09T06:39:10.549Z,25.93
2018-08-09T06:41:44.173Z,25.98
2018-08-09T06:44:14.533Z,26.13
2018-08-09T06:46:46.713Z,26.33
2018-08-09T06:49:17.326Z,25.70
2018-08-09T06:52:52.445Z,26.60
2018-08-09T06:55:23.655Z,26.94
2018-08-09T06:57:53.630Z,27.12
2018-08-09T07:00:23.866Z,27.24
2018-08-09T07:02:54.324Z,27.43
2018-08-09T07:05:25.714Z,27.57
2018-08-09T07:07:55.571Z,27.67
2018-08-09T07:10:26.870Z,27.94
2018-08-09T07:12:56.965Z,28.25
2018-08-09T07:15:27.272Z,28.49
2018-08-09T07:17:57.301Z,28.68
2018-08-09T07:20:27.680Z,28.93
2018-08-09T07:22:58.787Z,29.05
2018-08-09T07:25:28.847Z,29.14
2018-08-09T07:27:59.108Z,29.16
2018-08-09T07:30:29.028Z,29.16
2018-08-09T07:33:00.100Z,29.23
2018-08-09T07:35:30.372Z,29.34
2018-08-09T07:38:01.701Z,29.33
2018-08-09T07:42:54.387Z,29.34
2018-08-09T07:45:25.680Z,29.25
2018-08-09T07:47:56.489Z,29.25
2018-08-09T07:50:27.576Z,29.15
2018-08-09T07:52:57.415Z,29.25
2018-08-09T07:55:27.334Z,29.33
2018-08-09T07:57:57.734Z,29.62
2018-08-09T08:00:29.558Z,29.78
2018-08-09T08:02:59.779Z,29.73
2018-08-09T08:05:30.278Z,29.91
2018-08-09T08:08:00.476Z,29.84
2018-08-09T08:10:32.424Z,29.86
2018-08-09T08:13:04.020Z,29.85
2018-08-09T08:15:34.375Z,29.90
2018-08-09T08:18:05.535Z,29.96
2018-08-09T08:20:36.246Z,30.00
2018-08-09T08:23:08.164Z,30.03
2018-08-09T08:25:38.408Z,30.09
2018-08-09T08:28:11.372Z,30.10
2018-08-09T08:30:41.364Z,30.15
2018-08-09T08:33:17.025Z,30.10
2018-08-09T08:35:50.314Z,30.16
2018-08-09T08:38:20.695Z,30.01
2018-08-09T08:40:51.400Z,30.11
2018-08-09T08:43:22.817Z,30.23
2018-08-09T08:45:53.039Z,30.31
2018-08-09T08:48:23.571Z,30.43
2018-08-09T08:50:56.275Z,30.54
2018-08-09T08:53:29.058Z,30.62
2018-08-09T08:55:59.716Z,30.63
2018-08-09T08:58:30.578Z,30.60
2018-08-09T09:01:01.713Z,30.55
2018-08-09T09:03:32.652Z,30.63
2018-08-09T09:06:03.738Z,30.67
2018-08-09T09:08:34.021Z,30.73
2018-08-09T09:11:05.099Z,30.62
2018-08-09T09:13:34.969Z,30.69
2018-08-09T09:16:05.186Z,30.60
2018-08-09T09:18:35.642Z,30.76
2018-08-09T09:21:05.755Z,30.70
2018-08-09T09:23:36.092Z,30.79
2018-08-09T09:26:07.631Z,30.93
2018-08-09T09:28:37.753Z,30.96
2018-08-09T09:31:08.323Z,31.02
2018-08-09T09:33:39.391Z,31.07
2018-08-09T09:36:10.917Z,31.17
2018-08-09T09:38:40.926Z,31.28
2018-08-09T09:41:12.816Z,31.42
2018-08-09T09:43:43.169Z,31.13
2018-08-09T09:46:14.123Z,31.50
2018-08-09T09:48:44.137Z,31.56
2018-08-09T09:51:14.670Z,31.89
2018-08-09T09:53:45.581Z,31.99
2018-08-09T09:56:19.541Z,32.15
2018-08-09T09:58:50.736Z,32.09
2018-08-09T10:01:27.298Z,32.31
2018-08-09T10:04:00.220Z,32.43
2018-08-09T10:06:33.955Z,32.46
2018-08-09T10:09:06.181Z,32.62
2018-08-09T10:11:37.770Z,32.61
2018-08-09T10:14:08.355Z,32.76
2018-08-09T10:16:39.720Z,32.91
2018-08-09T10:19:10.722Z,32.82
2018-08-09T10:21:41.492Z,32.86
2018-08-09T10:24:14.276Z,33.00
2018-08-09T10:26:44.754Z,33.27
2018-08-09T10:29:15.314Z,33.61
2018-08-09T10:31:45.833Z,33.77
2018-08-09T10:34:15.889Z,34.01
2018-08-09T10:36:45.856Z,34.15
2018-08-09T10:39:17.180Z,34.20
2018-08-09T10:41:47.913Z,34.05
2018-08-09T10:44:20.271Z,34.07
2018-08-09T10:46:51.645Z,33.99
2018-08-09T10:49:21.765Z,34.06
2018-08-09T10:51:52.669Z,34.20
2018-08-09T10:54:25.257Z,34.18
2018-08-09T10:56:55.757Z,34.02
2018-08-09T10:59:31.261Z,34.04
2018-08-09T11:02:05.169Z,34.14
2018-08-09T11:04:36.836Z,34.07
2018-08-09T11:07:08.365Z,34.17
2018-08-09T11:09:40.454Z,34.50
2018-08-09T11:12:10.921Z,34.58
2018-08-09T11:14:45.365Z,34.77
2018-08-09T11:17:20.997Z,34.91
2018-08-09T11:19:55.627Z,34.85
2018-08-09T11:22:29.389Z,35.29
2018-08-09T11:25:00.683Z,35.30
2018-08-09T11:27:31.168Z,35.37
2018-08-09T11:30:09.525Z,35.33
2018-08-09T11:32:39.636Z,35.32
2018-08-09T11:35:12.724Z,35.39
2018-08-09T11:37:43.077Z,35.43
2018-08-09T11:40:14.241Z,35.51
2018-08-09T11:42:44.916Z,35.71
2018-08-09T11:45:17.673Z,35.76
2018-08-09T11:47:49.027Z,35.81
2018-08-09T11:50:21.712Z,35.71
2018-08-09T11:52:53.387Z,35.65
2018-08-09T11:55:23.860Z,35.68
2018-08-09T11:57:59.859Z,35.81
2018-08-09T12:00:31.056Z,36.09
2018-08-09T12:03:04.262Z,36.43
2018-08-09T12:05:35.500Z,36.78
2018-08-09T12:08:06.906Z,36.88
2018-08-09T12:10:38.340Z,36.89
2018-08-09T12:13:09.002Z,37.05
2018-08-09T12:15:39.229Z,37.25
2018-08-09T12:18:10.389Z,37.41
2018-08-09T12:20:42.351Z,37.40
2018-08-09T12:23:13.504Z,37.27
2018-08-09T12:25:44.238Z,36.86
2018-08-09T12:28:14.591Z,36.65
2018-08-09T12:30:44.381Z,36.98
2018-08-09T12:33:14.456Z,37.24
2018-08-09T12:35:45.585Z,37.57
2018-08-09T12:38:15.986Z,37.83
2018-08-09T12:40:46.523Z,37.63
2018-08-09T12:43:16.584Z,38.12
2018-08-09T12:45:47.602Z,38.10
2018-08-09T12:48:17.730Z,38.02
2018-08-09T12:50:48.297Z,38.00
2018-08-09T12:53:19.494Z,37.84
2018-08-09T12:55:49.560Z,37.51
2018-08-09T12:58:19.628Z,37.24
2018-08-09T13:00:57.669Z,36.94
2018-08-09T13:03:36.333Z,36.82
2018-08-09T13:06:10.266Z,36.78
2018-08-09T13:08:43.087Z,36.83
2018-08-09T13:11:18.387Z,36.94
2018-08-09T13:13:56.959Z,36.97
2018-08-09T13:16:35.539Z,36.94
2018-08-09T13:19:06.965Z,36.80
2018-08-09T13:21:42.072Z,36.86
2018-08-09T13:24:15.374Z,37.09
2018-08-09T13:26:50.933Z,37.12
2018-08-09T13:29:22.906Z,37.27
2018-08-09T13:31:54.332Z,37.36
2018-08-09T13:34:31.253Z,37.50
2018-08-09T13:37:03.095Z,37.76
2018-08-09T13:39:37.441Z,37.72
2018-08-09T13:42:10.247Z,37.75
2018-08-09T13:44:47.339Z,37.72
2018-08-09T13:47:19.994Z,37.73
2018-08-09T13:50:03.954Z,37.90
2018-08-09T13:52:37.935Z,37.50
2018-08-09T13:55:14.716Z,37.49
2018-08-09T13:57:55.469Z,37.65
2018-08-09T14:00:32.109Z,37.78
2018-08-09T14:03:02.726Z,38.12
2018-08-09T14:05:38.226Z,38.23
2018-08-09T14:08:10.123Z,38.28
2018-08-09T14:10:47.670Z,38.29
2018-08-09T14:13:19.834Z,38.37
2018-08-09T14:15:53.057Z,38.64
2018-08-09T14:18:24.852Z,38.75
2018-08-09T14:20:56.605Z,38.98
2018-08-09T14:23:28.551Z,38.91
2018-08-09T14:25:58.672Z,39.20
2018-08-09T14:28:30.067Z,39.00
2018-08-09T14:31:01.150Z,38.98
2018-08-09T14:33:32.954Z,38.77
2018-08-09T14:36:08.652Z,38.77
2018-08-09T14:38:46.068Z,38.90
2018-08-09T14:41:17.194Z,39.05
2018-08-09T14:43:47.549Z,39.21
2018-08-09T14:46:19.269Z,38.94
2018-08-09T14:48:50.254Z,38.92
2018-08-09T14:51:21.077Z,38.72
2018-08-09T14:53:51.876Z,38.63
2018-08-09T14:56:22.115Z,38.44
2018-08-09T14:58:52.082Z,38.39
2018-08-09T15:01:23.985Z,37.89
2018-08-09T15:03:55.012Z,37.68
2018-08-09T15:06:26.930Z,37.26
2018-08-09T15:08:59.115Z,37.15
2018-08-09T15:11:31.322Z,37.31
2018-08-09T15:14:06.929Z,37.42
2018-08-09T15:16:37.712Z,37.71
2018-08-09T15:19:08.918Z,38.17
2018-08-09T15:21:43.553Z,38.57
2018-08-09T15:24:14.360Z,38.84
2018-08-09T15:26:45.754Z,39.08
2018-08-09T15:29:15.671Z,39.06
2018-08-09T15:31:47.759Z,39.05
2018-08-09T15:34:20.040Z,39.01
2018-08-09T15:36:50.465Z,39.13
2018-08-09T15:39:21.574Z,39.08
2018-08-09T15:41:51.596Z,38.69
2018-08-09T15:44:22.501Z,38.40
2018-08-09T15:46:53.291Z,38.09
2018-08-09T15:49:23.351Z,37.63
2018-08-09T15:51:54.147Z,37.27
2018-08-09T15:54:25.044Z,37.22
2018-08-09T15:56:56.791Z,37.19
2018-08-09T15:59:27.117Z,36.98
2018-08-09T16:01:58.589Z,36.81
2018-08-09T16:04:29.871Z,36.50
2018-08-09T16:07:00.537Z,36.23
2018-08-09T16:09:31.924Z,36.18
2018-08-09T16:12:03.035Z,35.97
2018-08-09T16:14:33.722Z,35.83
2018-08-09T16:17:05.609Z,35.16
2018-08-09T16:19:35.418Z,33.61
2018-08-09T16:22:05.531Z,32.53
2018-08-09T16:24:35.650Z,31.74
2018-08-09T16:27:05.727Z,30.96
2018-08-09T16:29:35.773Z,30.76
2018-08-09T16:32:05.976Z,30.87
2018-08-09T16:34:36.222Z,30.97
2018-08-09T16:37:06.575Z,30.95
2018-08-09T16:39:36.575Z,30.64
2018-08-09T16:42:06.659Z,30.29
2018-08-09T16:44:36.582Z,29.30
2018-08-09T16:47:06.804Z,29.34
2018-08-09T16:49:36.625Z,29.21
2018-08-09T16:52:07.796Z,29.17
2018-08-09T16:54:37.672Z,29.02
2018-08-09T16:57:07.768Z,28.97
2018-08-09T16:59:38.091Z,29.19
2018-08-09T17:02:08.603Z,29.41
2018-08-09T17:04:38.459Z,29.39
2018-08-09T17:07:08.664Z,29.36
2018-08-09T17:09:38.975Z,29.38
2018-08-09T17:12:09.995Z,28.74
2018-08-09T17:14:39.953Z,29.00
2018-08-09T17:17:10.111Z,29.01
2018-08-09T17:19:40.400Z,28.57
2018-08-09T17:22:10.543Z,28.61
2018-08-09T17:24:40.656Z,29.02
2018-08-09T17:27:10.681Z,29.06
2018-08-09T17:29:40.784Z,28.93
2018-08-09T17:32:11.328Z,28.67
2018-08-09T17:34:41.796Z,28.52
2018-08-09T17:37:11.856Z,28.38
2018-08-09T17:39:45.804Z,28.27
2018-08-09T17:42:16.679Z,28.16
2018-08-09T17:44:46.798Z,28.17
2018-08-09T17:47:17.777Z,28.17
2018-08-09T17:49:47.774Z,27.98
2018-08-09T17:52:17.748Z,27.95
2018-08-09T17:54:47.783Z,28.01
2018-08-09T17:57:17.772Z,27.95
2018-08-09T17:59:48.370Z,27.98
2018-08-09T18:02:20.629Z,27.98
2018-08-09T18:04:51.002Z,27.88
2018-08-09T18:07:21.017Z,27.84
2018-08-09T18:09:51.045Z,27.87
2018-08-09T18:12:21.878Z,27.82
2018-08-09T18:14:52.123Z,27.79
2018-08-09T18:17:22.361Z,27.68
2018-08-09T18:19:52.485Z,27.73
2018-08-09T18:22:24.124Z,27.71
2018-08-09T18:24:54.023Z,27.57
2018-08-09T18:27:25.323Z,27.13
2018-08-09T18:29:55.411Z,27.63
2018-08-09T18:32:29.557Z,27.61
2018-08-09T18:35:00.601Z,27.50
2018-08-09T18:37:31.192Z,27.49
2018-08-09T18:40:02.104Z,27.43
2018-08-09T18:42:33.427Z,27.42
2018-08-09T18:45:04.526Z,27.36
2018-08-09T18:47:35.995Z,27.39
2018-08-09T18:50:10.774Z,27.37
2018-08-09T18:52:42.259Z,27.31
2018-08-09T18:55:12.727Z,27.32
2018-08-09T18:57:44.097Z,27.33
2018-08-09T19:00:21.814Z,27.25
2018-08-09T19:02:52.638Z,27.33
2018-08-09T19:05:24.366Z,27.44
2018-08-09T19:07:55.703Z,27.43
2018-08-09T19:10:30.437Z,27.36
2018-08-09T19:13:00.496Z,27.32
2018-08-09T19:15:30.572Z,27.10
2018-08-09T19:18:02.328Z,26.95
2018-08-09T19:20:33.917Z,26.91
2018-08-09T19:23:04.988Z,27.07
2018-08-09T19:25:37.258Z,26.98
2018-08-09T19:28:08.004Z,27.02
2018-08-09T19:30:38.555Z,27.02
2018-08-09T19:33:09.535Z,26.99
2018-08-09T19:35:39.491Z,26.93
2018-08-09T19:38:10.773Z,26.85
2018-08-09T19:40:41.109Z,26.65
2018-08-09T19:43:10.901Z,26.76
2018-08-09T19:45:41.371Z,26.69
2018-08-09T19:48:11.498Z,26.68
2018-08-09T19:50:43.644Z,26.55
2018-08-09T19:53:14.140Z,26.43
2018-08-09T19:55:44.060Z,26.38
2018-08-09T19:58:14.477Z,26.37
2018-08-09T20:00:45.011Z,26.41
2018-08-09T20:03:16.749Z,26.21
2018-08-09T20:05:46.651Z,26.26
2018-08-09T20:08:17.580Z,26.14
2018-08-09T20:10:48.079Z,26.06
2018-08-09T20:13:19.302Z,26.08
2018-08-09T20:15:50.178Z,26.04
2018-08-09T20:18:21.106Z,26.00
2018-08-09T20:20:51.168Z,25.96
2018-08-09T20:23:23.261Z,25.92
2018-08-09T20:25:53.152Z,25.95
2018-08-09T20:28:23.485Z,25.85
2018-08-09T20:30:53.819Z,25.80
2018-08-09T20:33:25.977Z,25.84
2018-08-09T20:35:56.305Z,25.89
2018-08-09T20:38:27.204Z,25.83
2018-08-09T20:40:57.682Z,25.71
2018-08-09T20:43:28.540Z,25.57
2018-08-09T20:46:01.117Z,25.65
2018-08-09T20:48:30.962Z,25.52
2018-08-09T20:51:02.950Z,25.48
2018-08-09T20:53:33.011Z,25.52
2018-08-09T20:56:03.663Z,25.50
2018-08-09T20:58:33.776Z,25.36
2018-08-09T21:01:03.730Z,25.42
2018-08-09T21:03:33.880Z,25.47
2018-08-09T21:08:10.257Z,25.50
2018-08-09T21:10:41.252Z,25.04
2018-08-09T21:13:12.721Z,25.49
2018-08-09T21:15:44.190Z,25.49
2018-08-09T21:18:16.564Z,25.55
2018-08-09T21:20:46.352Z,25.63
2018-08-09T21:23:16.535Z,25.60
2018-08-09T21:25:46.678Z,25.53
2018-08-09T21:28:18.303Z,25.44
2018-08-09T21:30:48.355Z,25.42
2018-08-09T21:33:18.916Z,25.43
2018-08-09T21:35:48.702Z,25.31
2018-08-09T21:38:19.006Z,25.32
2018-08-09T21:40:48.736Z,25.29
2018-08-09T21:43:20.385Z,25.27
2018-08-09T21:45:52.301Z,25.27
2018-08-09T21:48:22.676Z,25.18
2018-08-09T21:50:52.983Z,25.20
2018-08-09T21:53:23.337Z,25.19
2018-08-09T21:55:54.977Z,25.08
2018-08-09T21:58:27.498Z,25.08
2018-08-09T22:01:00.867Z,25.08
2018-08-09T22:03:34.116Z,25.00
2018-08-09T22:07:33.474Z,25.06
2018-08-09T22:10:10.286Z,24.99
2018-08-09T22:12:45.206Z,25.04
2018-08-09T22:15:20.481Z,25.04
2018-08-09T22:17:55.997Z,24.99
2018-08-09T22:20:32.627Z,25.01
2018-08-09T22:23:03.250Z,24.96
2018-08-09T22:25:33.314Z,24.88
2018-08-09T22:28:03.508Z,24.70
2018-08-09T22:30:33.315Z,24.71
2018-08-09T22:33:03.258Z,24.64
2018-08-09T22:35:33.548Z,24.50
2018-08-09T22:38:03.296Z,24.58
2018-08-09T22:40:35.005Z,24.50
2018-08-09T22:43:05.644Z,24.48
2018-08-09T22:45:35.659Z,24.45
2018-08-09T22:48:06.083Z,24.47
2018-08-09T22:50:36.905Z,24.43
2018-08-09T22:53:06.850Z,24.41
2018-08-09T22:55:37.185Z,24.33
2018-08-09T22:58:07.592Z,24.37
2018-08-09T23:00:38.168Z,24.34
2018-08-09T23:03:11.060Z,24.35
2018-08-09T23:05:42.416Z,24.23
2018-08-09T23:08:13.545Z,24.27
2018-08-09T23:10:44.176Z,24.23
2018-08-09T23:13:15.185Z,24.16
2018-08-09T23:15:46.278Z,24.14
2018-08-09T23:18:17.223Z,24.12
2018-08-09T23:20:47.413Z,24.11
2018-08-09T23:23:17.252Z,24.01
2018-08-09T23:25:46.980Z,23.98
2018-08-09T23:28:17.111Z,23.96
2018-08-09T23:30:47.934Z,23.96
2018-08-09T23:33:22.470Z,23.97
2018-08-09T23:35:53.221Z,23.82
2018-08-09T23:38:23.350Z,23.79
2018-08-09T23:40:53.777Z,23.81
2018-08-09T23:43:24.430Z,23.88
2018-08-09T23:45:55.929Z,23.96
2018-08-09T23:48:26.214Z,24.00
2018-08-09T23:50:56.364Z,23.80
2018-08-09T23:53:26.630Z,23.80
2018-08-09T23:55:56.656Z,23.80
2018-08-09T23:58:27.122Z,23.76
